Time;durP1;ratioP1;P1;durP2;ratioP2;P2;SDS_P1;SDS_P2;PMS_P1;PMS_P2;Temp;Humidity;BMP_temperature;BMP_pressure;BME280_temperature;BME280_humidity;BME280_pressure;Samples;Min_cycle;Max_cycle;Signal;HPM_P1;HPM_P2
2024/03/12 00:00:15;;;;;;;0.73;0.73;;;4.70;1.00;;;;;;4966536;28;20039;-74
2024/03/12 00:02:44;;;;;;;0.30;0.30;;;4.80;1.00;;;;;;4966598;28;20042;-75
2024/03/12 00:05:13;;;;;;;0.73;0.73;;;4.90;1.00;;;;;;4964882;28;20042;-75
2024/03/12 00:07:41;;;;;;;1.98;1.02;;;4.90;1.00;;;;;;4951461;28;20039;-75
2024/03/12 00:10:09;;;;;;;0.20;0.20;;;4.90;1.00;;;;;;4959518;28;20043;-75
2024/03/12 00:12:38;;;;;;;1.58;1.48;;;4.90;1.00;;;;;;4960411;28;20035;-75
2024/03/12 00:15:05;;;;;;;0.47;0.47;;;4.70;1.00;;;;;;4955037;28;20396;-75
2024/03/12 00:17:32;;;;;;;0.40;0.40;;;4.70;1.00;;;;;;4966675;28;20047;-75
2024/03/12 00:20:05;;;;;;;0.65;0.50;;;4.70;1.00;;;;;;4965324;28;20357;-75
2024/03/12 00:22:33;;;;;;;0.40;0.40;;;4.60;1.00;;;;;;4960111;28;20469;-76
2024/03/12 00:25:00;;;;;;;1.35;1.25;;;4.60;1.00;;;;;;4961465;28;20038;-75
2024/03/12 00:27:26;;;;;;;1.27;1.17;;;4.70;1.00;;;;;;4963420;28;20034;-75
2024/03/12 00:29:55;;;;;;;0.50;0.50;;;4.70;1.00;;;;;;4959786;28;20122;-74
2024/03/12 00:32:21;;;;;;;0.30;0.30;;;4.70;1.00;;;;;;4944143;28;20047;-75
2024/03/12 00:34:50;;;;;;;0.40;0.40;;;4.60;1.00;;;;;;4967673;28;20035;-75
2024/03/12 00:37:16;;;;;;;0.75;0.70;;;4.50;1.00;;;;;;4962817;28;20035;-76
2024/03/12 00:39:42;;;;;;;0.32;0.32;;;4.50;1.00;;;;;;4947174;28;20054;-75
2024/03/12 00:42:08;;;;;;;0.85;0.85;;;4.60;1.00;;;;;;4962380;28;20039;-76
2024/03/12 00:44:35;;;;;;;0.20;0.20;;;4.70;1.00;;;;;;4964866;28;20035;-75
2024/03/12 00:47:01;;;;;;;0.85;0.73;;;4.70;1.00;;;;;;4941780;28;20054;-75
2024/03/12 00:49:30;;;;;;;0.30;0.30;;;4.70;1.00;;;;;;4959828;28;20051;-75
2024/03/12 00:51:56;;;;;;;0.10;0.10;;;4.70;1.00;;;;;;4966419;28;20030;-75
2024/03/12 00:54:24;;;;;;;0.55;0.55;;;4.70;1.00;;;;;;4963380;28;20035;-75
2024/03/12 00:56:51;;;;;;;0.25;0.25;;;4.90;1.00;;;;;;4963004;28;20035;-75
2024/03/12 00:59:18;;;;;;;4.32;0.88;;;5.20;1.00;;;;;;4963265;28;20040;-75
2024/03/12 01:01:44;;;;;;;0.10;0.10;;;5.30;1.00;;;;;;4966486;28;20046;-75
2024/03/12 01:04:11;;;;;;;1.15;1.13;;;5.40;99.90;;;;;;4960534;28;20182;-75
2024/03/12 01:06:37;;;;;;;0.10;0.10;;;5.60;99.90;;;;;;4964894;28;20498;-75
2024/03/12 01:09:06;;;;;;;4.85;1.45;;;5.80;99.90;;;;;;4961384;28;20039;-76
2024/03/12 01:11:32;;;;;;;0.38;0.38;;;5.90;99.90;;;;;;4958874;28;20030;-75
2024/03/12 01:13:58;;;;;;;3.63;2.28;;;5.90;99.90;;;;;;4961051;28;20039;-75
2024/03/12 01:16:26;;;;;;;0.63;0.63;;;6.00;99.90;;;;;;4960178;28;20047;-75
2024/03/12 01:18:53;;;;;;;0.63;0.55;;;5.90;99.90;;;;;;4965284;28;20051;-75
2024/03/12 01:21:20;;;;;;;1.17;1.08;;;5.90;99.90;;;;;;4957581;28;20042;-75
2024/03/12 01:23:48;;;;;;;0.50;0.50;;;5.80;99.90;;;;;;4959414;28;20026;-75
2024/03/12 01:26:15;;;;;;;1.02;0.98;;;5.70;99.90;;;;;;4960105;28;20031;-76
2024/03/12 01:28:42;;;;;;;0.57;0.57;;;5.90;99.90;;;;;;4961544;28;20031;-76
2024/03/12 01:31:08;;;;;;;0.20;0.20;;;5.90;99.90;;;;;;4964631;28;20050;-75
2024/03/12 01:33:34;;;;;;;0.10;0.10;;;5.90;99.90;;;;;;4966034;28;20041;-75
2024/03/12 01:36:18;;;;;;;0.30;0.30;;;5.90;99.90;;;;;;4941960;28;20046;-75
2024/03/12 01:38:48;;;;;;;0.32;0.32;;;5.80;99.90;;;;;;4963656;28;20409;-75
2024/03/12 01:41:15;;;;;;;0.45;0.45;;;5.70;99.90;;;;;;4959526;28;20360;-75
2024/03/12 01:43:42;;;;;;;0.40;0.40;;;5.60;99.90;;;;;;4961517;28;20066;-75
2024/03/12 01:46:10;;;;;;;0.30;0.30;;;5.60;99.90;;;;;;4966711;28;20051;-75
2024/03/12 01:48:38;;;;;;;0.17;0.17;;;5.50;99.90;;;;;;4943164;28;20054;-75
2024/03/12 01:51:06;;;;;;;0.70;0.70;;;5.40;99.90;;;;;;4959228;28;20035;-75
2024/03/12 01:53:33;;;;;;;0.30;0.30;;;5.30;99.90;;;;;;4964137;28;20031;-76
2024/03/12 01:56:00;;;;;;;1.15;1.05;;;5.00;99.90;;;;;;4961201;28;20053;-75
2024/03/12 01:58:26;;;;;;;0.22;0.22;;;4.90;99.90;;;;;;4960387;28;20035;-74
2024/03/12 02:00:53;;;;;;;0.20;0.20;;;4.80;99.90;;;;;;4961339;28;20039;-75
2024/03/12 02:03:19;;;;;;;0.30;0.30;;;4.60;99.90;;;;;;4964583;28;20034;-75
2024/03/12 02:05:48;;;;;;;0.20;0.20;;;4.40;99.90;;;;;;4952795;28;20039;-76
2024/03/12 02:08:16;;;;;;;0.75;0.40;;;4.30;99.90;;;;;;4962613;28;20260;-76
2024/03/12 02:10:43;;;;;;;0.17;0.17;;;4.30;1.00;;;;;;4959595;28;20047;-75
2024/03/12 02:13:09;;;;;;;0.90;0.63;;;4.20;1.00;;;;;;4963278;28;20054;-75
2024/03/12 02:15:35;;;;;;;0.60;0.60;;;4.10;1.00;;;;;;4959753;28;20039;-75
2024/03/12 02:18:01;;;;;;;1.52;0.55;;;4.00;1.00;;;;;;4948502;28;20057;-75
2024/03/12 02:20:28;;;;;;;1.00;1.00;;;3.90;1.00;;;;;;4960719;28;20038;-75
2024/03/12 02:22:55;;;;;;;0.85;0.85;;;3.80;1.00;;;;;;4964076;28;20053;-75
2024/03/12 02:25:22;;;;;;;2.33;0.68;;;3.80;1.00;;;;;;4964573;28;20038;-75
2024/03/12 02:27:48;;;;;;;0.28;0.28;;;3.90;1.00;;;;;;4967543;28;20038;-75
2024/03/12 02:30:14;;;;;;;0.38;0.38;;;3.90;1.00;;;;;;4969469;28;20039;-75
2024/03/12 02:32:40;;;;;;;0.45;0.40;;;3.90;1.00;;;;;;4969282;28;20031;-75
2024/03/12 02:35:11;;;;;;;0.32;0.20;;;3.80;1.00;;;;;;4962177;28;20465;-74
2024/03/12 02:37:38;;;;;;;0.35;0.35;;;3.90;1.00;;;;;;4963785;28;20038;-75
2024/03/12 02:40:12;;;;;;;0.20;0.20;;;3.90;1.00;;;;;;4961989;28;20039;-75
2024/03/12 02:42:39;;;;;;;1.70;1.13;;;3.70;1.00;;;;;;4966962;28;20047;-75
2024/03/12 02:45:06;;;;;;;4.75;0.55;;;3.60;1.00;;;;;;4961843;28;20049;-75
2024/03/12 02:47:32;;;;;;;0.88;0.77;;;3.60;1.00;;;;;;4968370;28;20069;-75
2024/03/12 02:49:59;;;;;;;0.40;0.40;;;3.60;16.80;;;;;;4967297;28;20039;-74
2024/03/12 02:52:25;;;;;;;0.80;0.80;;;3.70;90.40;;;;;;4964146;28;20469;-75
2024/03/12 02:54:51;;;;;;;3.40;0.60;;;3.70;83.80;;;;;;4952635;28;20039;-75
2024/03/12 02:57:17;;;;;;;0.15;0.15;;;3.70;91.00;;;;;;4966889;28;20456;-75
2024/03/12 02:59:43;;;;;;;0.35;0.35;;;3.70;88.30;;;;;;4962492;28;20039;-76
2024/03/12 03:02:12;;;;;;;5.72;1.23;;;3.70;92.30;;;;;;4967859;28;20035;-75
2024/03/12 03:04:39;;;;;;;0.10;0.10;;;3.80;95.80;;;;;;4969274;28;20031;-75
2024/03/12 03:07:07;;;;;;;1.17;0.50;;;3.90;99.90;;;;;;4968280;28;20030;-75
2024/03/12 03:09:33;;;;;;;0.20;0.20;;;4.00;78.40;;;;;;4963698;28;20035;-75
2024/03/12 03:11:59;;;;;;;0.10;0.10;;;4.00;54.10;;;;;;4961851;28;20042;-75
2024/03/12 03:14:25;;;;;;;0.15;0.15;;;4.20;39.10;;;;;;4966424;28;20042;-75
2024/03/12 03:16:54;;;;;;;1.17;0.52;;;4.30;23.00;;;;;;4960995;28;20046;-75
2024/03/12 03:19:20;;;;;;;0.15;0.15;;;4.30;1.00;;;;;;4966217;28;20050;-74
2024/03/12 03:21:47;;;;;;;0.85;0.73;;;4.40;1.00;;;;;;4964989;28;20054;-74
2024/03/12 03:24:13;;;;;;;0.10;0.10;;;4.50;1.00;;;;;;4958350;28;20037;-75
2024/03/12 03:26:40;;;;;;;2.25;2.05;;;4.50;1.00;;;;;;4962210;28;20051;-74
2024/03/12 03:29:06;;;;;;;0.50;0.50;;;4.60;1.00;;;;;;4965206;28;20033;-75
2024/03/12 03:31:32;;;;;;;0.28;0.28;;;4.60;1.00;;;;;;4964985;28;20051;-76
2024/03/12 03:33:58;;;;;;;0.63;0.63;;;4.70;1.00;;;;;;4966172;28;20038;-75
2024/03/12 03:36:26;;;;;;;1.50;0.73;;;4.80;1.00;;;;;;4967737;28;20042;-75
2024/03/12 03:38:52;;;;;;;0.50;0.50;;;4.90;1.00;;;;;;4963819;28;20046;-75
2024/03/12 03:41:19;;;;;;;0.22;0.22;;;5.00;1.00;;;;;;4963242;28;20467;-75
2024/03/12 03:43:45;;;;;;;0.70;0.70;;;5.10;1.00;;;;;;4964927;28;20369;-76
2024/03/12 03:46:11;;;;;;;0.55;0.50;;;5.20;1.00;;;;;;4963603;28;20050;-75
2024/03/12 03:48:38;;;;;;;0.10;0.10;;;5.40;1.00;;;;;;4952253;28;20027;-75
2024/03/12 03:51:05;;;;;;;5.38;1.23;;;5.50;1.00;;;;;;4966189;28;20371;-75
2024/03/12 03:53:31;;;;;;;0.10;0.10;;;5.40;1.00;;;;;;4955837;28;20054;-75
2024/03/12 03:55:57;;;;;;;0.60;0.60;;;5.40;1.00;;;;;;4961201;28;20118;-75
2024/03/12 03:58:23;;;;;;;0.30;0.30;;;5.50;99.90;;;;;;4961413;28;20042;-75
2024/03/12 04:00:52;;;;;;;0.43;0.43;;;5.50;99.90;;;;;;4966897;28;20051;-75
2024/03/12 04:03:19;;;;;;;0.17;0.17;;;5.40;99.90;;;;;;4966491;28;20512;-75
2024/03/12 04:05:45;;;;;;;0.20;0.20;;;5.30;99.90;;;;;;4962175;28;20026;-75
2024/03/12 04:08:11;;;;;;;0.95;0.80;;;5.30;99.90;;;;;;4967034;28;20047;-75
2024/03/12 04:10:37;;;;;;;0.20;0.20;;;5.20;99.90;;;;;;4953711;28;20392;-75
2024/03/12 04:13:04;;;;;;;0.88;0.85;;;5.20;99.90;;;;;;4964595;28;20046;-75
2024/03/12 04:15:33;;;;;;;0.17;0.17;;;5.20;1.00;;;;;;4963182;28;20461;-75
2024/03/12 04:18:00;;;;;;;9.98;2.33;;;5.30;1.00;;;;;;4966868;28;20035;-75
2024/03/12 04:20:26;;;;;;;0.32;0.32;;;5.30;1.00;;;;;;4966873;28;20042;-76
2024/03/12 04:22:54;;;;;;;0.80;0.80;;;5.20;99.90;;;;;;4962080;28;20512;-74
2024/03/12 04:25:20;;;;;;;0.30;0.30;;;5.20;1.00;;;;;;4960998;28;20039;-74
2024/03/12 04:27:47;;;;;;;0.20;0.20;;;5.20;1.00;;;;;;4963412;28;20046;-75
2024/03/12 04:30:16;;;;;;;6.18;2.42;;;5.20;1.00;;;;;;4965292;28;20393;-74
2024/03/12 04:32:42;;;;;;;0.63;0.43;;;5.10;1.00;;;;;;4967475;28;20390;-74
2024/03/12 04:35:09;;;;;;;2.05;1.13;;;5.10;1.00;;;;;;4966371;28;20035;-74
2024/03/12 04:37:36;;;;;;;1.23;1.17;;;5.10;1.00;;;;;;4965329;28;20031;-75
2024/03/12 04:40:07;;;;;;;0.20;0.20;;;5.20;1.00;;;;;;4963302;28;20046;-74
2024/03/12 04:42:37;;;;;;;0.10;0.10;;;5.20;1.00;;;;;;4963755;28;20054;-74
2024/03/12 04:45:04;;;;;;;0.30;0.30;;;5.20;1.00;;;;;;4963737;28;20054;-74
2024/03/12 04:47:32;;;;;;;1.35;0.80;;;5.20;1.00;;;;;;4964642;28;20475;-74
2024/03/12 04:49:59;;;;;;;0.10;0.10;;;5.20;1.00;;;;;;4964711;28;20046;-74
2024/03/12 04:52:25;;;;;;;0.20;0.20;;;5.30;1.00;;;;;;4961951;28;20042;-74
2024/03/12 04:54:51;;;;;;;0.98;0.68;;;5.40;1.00;;;;;;4959454;28;20058;-75
2024/03/12 04:57:18;;;;;;;0.30;0.30;;;5.50;1.00;;;;;;4964426;28;20400;-75
2024/03/12 04:59:44;;;;;;;0.45;0.45;;;5.60;1.00;;;;;;4963098;28;20050;-74
2024/03/12 05:02:11;;;;;;;0.50;0.50;;;5.60;1.00;;;;;;4966848;28;20031;-74
2024/03/12 05:04:38;;;;;;;3.95;2.70;;;5.70;1.00;;;;;;4964083;28;20035;-75
2024/03/12 05:07:04;;;;;;;27.90;18.23;;;5.70;1.00;;;;;;4965486;28;20042;-74
2024/03/12 05:09:30;;;;;;;50.28;32.58;;;5.70;1.00;;;;;;4963052;28;20034;-75
2024/03/12 05:11:57;;;;;;;25.10;22.48;;;5.70;1.00;;;;;;4962858;28;20039;-74
2024/03/12 05:14:23;;;;;;;30.65;17.25;;;5.80;1.00;;;;;;4964613;28;20035;-74
2024/03/12 05:16:50;;;;;;;23.25;17.42;;;5.90;1.00;;;;;;4966078;28;20046;-74
2024/03/12 05:19:17;;;;;;;20.23;16.33;;;6.00;1.00;;;;;;4963096;28;20063;-74
2024/03/12 05:21:43;;;;;;;13.15;11.82;;;6.00;1.00;;;;;;4962939;28;20027;-74
2024/03/12 05:24:09;;;;;;;10.77;6.78;;;6.20;1.00;;;;;;4959091;28;20039;-75
2024/03/12 05:26:43;;;;;;;10.07;6.50;;;6.20;99.90;;;;;;4962787;28;20031;-75
2024/03/12 05:29:11;;;;;;;2.92;2.58;;;6.30;99.90;;;;;;4962418;28;20031;-75
2024/03/12 05:31:38;;;;;;;1.85;1.75;;;6.30;99.90;;;;;;4965572;28;20476;-75
2024/03/12 05:34:16;;;;;;;2.42;2.22;;;6.40;99.90;;;;;;4964534;28;20030;-74
2024/03/12 05:36:47;;;;;;;1.42;1.38;;;6.50;99.90;;;;;;4965174;28;20054;-75
2024/03/12 05:50:21;;;;;;;2.40;1.00;;;6.60;99.90;;;;;;4946756;28;20047;-74
2024/03/12 05:52:48;;;;;;;1.48;1.38;;;6.60;99.90;;;;;;4964392;28;20027;-75
2024/03/12 05:55:17;;;;;;;1.55;1.05;;;6.70;99.90;;;;;;4959438;28;20038;-74
2024/03/12 05:57:46;;;;;;;2.15;1.02;;;6.70;99.90;;;;;;4963552;28;20038;-74
2024/03/12 06:00:13;;;;;;;1.80;1.67;;;6.80;99.90;;;;;;4967688;28;20504;-74
2024/03/12 06:02:41;;;;;;;3.40;0.85;;;6.90;99.90;;;;;;4969326;28;20408;-74
2024/03/12 06:05:14;;;;;;;0.60;0.60;;;6.90;99.90;;;;;;4969205;28;20034;-73
2024/03/12 06:07:41;;;;;;;0.98;0.85;;;7.00;99.90;;;;;;4967935;28;20027;-75
2024/03/12 06:10:08;;;;;;;1.30;1.20;;;7.00;99.90;;;;;;4970232;28;20031;-74
2024/03/12 06:12:34;;;;;;;0.65;0.65;;;7.00;99.90;;;;;;4966005;28;20043;-75
2024/03/12 06:15:01;;;;;;;1.20;1.00;;;7.00;99.90;;;;;;4964927;28;20194;-74
2024/03/12 06:17:27;;;;;;;0.30;0.30;;;7.10;99.90;;;;;;4967604;28;20031;-75
2024/03/12 06:19:53;;;;;;;0.80;0.80;;;7.10;99.90;;;;;;4967028;28;20057;-74
2024/03/12 06:22:19;;;;;;;0.68;0.68;;;7.10;99.90;;;;;;4948281;28;20035;-74
2024/03/12 06:24:47;;;;;;;0.38;0.38;;;7.10;99.90;;;;;;4967458;28;20038;-75
2024/03/12 06:27:14;;;;;;;0.43;0.43;;;7.20;99.90;;;;;;4970808;28;20031;-75
2024/03/12 06:29:40;;;;;;;1.45;1.35;;;7.20;99.90;;;;;;4967372;28;20046;-75
2024/03/12 06:32:06;;;;;;;1.63;1.52;;;7.30;99.90;;;;;;4969671;28;20035;-74
2024/03/12 06:34:33;;;;;;;1.42;1.33;;;7.30;99.90;;;;;;4966831;28;20035;-74
2024/03/12 06:36:59;;;;;;;1.65;1.17;;;7.30;99.90;;;;;;4968098;28;20035;-75
2024/03/12 06:39:31;;;;;;;2.55;2.20;;;7.30;99.90;;;;;;4963723;28;20042;-75
2024/03/12 06:42:01;;;;;;;1.42;1.02;;;7.40;99.90;;;;;;4963405;28;20031;-75
2024/03/12 06:44:30;;;;;;;1.10;1.02;;;7.50;99.90;;;;;;4964762;28;20054;-75
2024/03/12 06:46:57;;;;;;;2.38;2.17;;;7.50;99.90;;;;;;4966256;28;20042;-75
2024/03/12 06:49:24;;;;;;;1.55;0.60;;;7.60;99.90;;;;;;4968856;28;20031;-75
2024/03/12 06:51:50;;;;;;;3.72;2.72;;;7.60;99.90;;;;;;4968385;28;20038;-75
2024/03/12 06:54:18;;;;;;;0.73;0.73;;;7.60;99.90;;;;;;4965588;28;20042;-75
2024/03/12 06:56:46;;;;;;;1.17;0.82;;;7.60;99.90;;;;;;4964878;28;20046;-75
2024/03/12 06:59:15;;;;;;;6.10;2.42;;;7.60;99.90;;;;;;4960273;28;20043;-75
2024/03/12 07:01:42;;;;;;;5.25;1.98;;;7.60;99.90;;;;;;4962743;28;20057;-74
2024/03/12 07:04:11;;;;;;;1.83;1.73;;;7.60;99.90;;;;;;4961678;28;20042;-74
2024/03/12 07:06:41;;;;;;;0.68;0.68;;;7.60;99.90;;;;;;4968568;28;20423;-74
2024/03/12 07:09:15;;;;;;;1.02;0.95;;;7.60;99.90;;;;;;4964012;28;20050;-75
2024/03/12 07:11:41;;;;;;;1.60;1.45;;;7.60;99.90;;;;;;4962040;28;20492;-75
2024/03/12 07:14:23;;;;;;;2.10;1.67;;;7.60;99.90;;;;;;4961396;28;20042;-74
2024/03/12 07:16:52;;;;;;;0.88;0.85;;;7.70;99.90;;;;;;4959248;28;20495;-74
2024/03/12 07:19:25;;;;;;;0.57;0.57;;;7.70;99.90;;;;;;4956482;28;20034;-75
2024/03/12 07:21:52;;;;;;;3.28;0.70;;;7.70;99.90;;;;;;4964264;28;20043;-74
2024/03/12 07:24:19;;;;;;;1.60;1.02;;;7.80;99.90;;;;;;4964965;28;20531;-74
2024/03/12 07:26:48;;;;;;;1.15;1.05;;;7.90;99.90;;;;;;4963391;28;20043;-74
2024/03/12 07:29:14;;;;;;;0.20;0.20;;;7.90;99.90;;;;;;4960096;28;20589;-74
2024/03/12 07:31:41;;;;;;;1.23;1.13;;;8.00;99.90;;;;;;4966898;28;20432;-74
2024/03/12 07:34:07;;;;;;;0.70;0.70;;;8.10;99.90;;;;;;4968582;28;20394;-74
2024/03/12 07:36:34;;;;;;;0.95;0.93;;;8.20;93.20;;;;;;4968504;28;20035;-75
2024/03/12 07:39:08;;;;;;;0.95;0.93;;;8.30;76.80;;;;;;4963043;28;20515;-74
2024/03/12 07:41:35;;;;;;;0.30;0.30;;;8.40;62.90;;;;;;4959234;28;20043;-74
2024/03/12 07:44:02;;;;;;;0.65;0.65;;;8.40;40.80;;;;;;4966306;28;20066;-74
2024/03/12 07:46:28;;;;;;;1.80;1.30;;;8.40;40.40;;;;;;4964720;28;20281;-74
2024/03/12 07:48:55;;;;;;;0.10;0.10;;;8.40;40.10;;;;;;4955050;28;20408;-74
2024/03/12 07:51:22;;;;;;;0.28;0.28;;;8.40;40.10;;;;;;4966780;28;20153;-74
2024/03/12 07:53:49;;;;;;;0.70;0.70;;;8.40;28.70;;;;;;4965594;28;20389;-74
2024/03/12 07:56:15;;;;;;;0.60;0.60;;;8.50;30.60;;;;;;4960911;28;20039;-74
2024/03/12 07:58:46;;;;;;;0.82;0.80;;;8.50;28.30;;;;;;4962322;28;20042;-74
2024/03/12 08:01:14;;;;;;;0.33;0.33;;;8.60;23.40;;;;;;4965953;28;20443;-74
2024/03/12 08:03:41;;;;;;;7.70;0.55;;;8.70;1.00;;;;;;4969087;28;20031;-74
2024/03/12 08:06:08;;;;;;;0.50;0.50;;;9.00;1.20;;;;;;4968701;28;20388;-74
2024/03/12 08:08:34;;;;;;;0.52;0.52;;;9.20;1.00;;;;;;4964145;28;20034;-74
2024/03/12 08:11:02;;;;;;;0.30;0.30;;;9.40;1.00;;;;;;4964794;28;20035;-74
2024/03/12 08:13:30;;;;;;;0.63;0.63;;;9.50;1.00;;;;;;4967407;28;20049;-75
2024/03/12 08:15:58;;;;;;;1.25;1.15;;;9.40;1.00;;;;;;4967643;28;20035;-74
2024/03/12 08:18:24;;;;;;;1.85;0.95;;;9.50;1.00;;;;;;4966060;28;20035;-74
2024/03/12 08:20:52;;;;;;;1.27;0.50;;;9.50;1.00;;;;;;4965974;28;20051;-74
2024/03/12 08:23:19;;;;;;;1.13;0.63;;;9.50;1.00;;;;;;4963891;28;20345;-74
2024/03/12 08:25:46;;;;;;;4.93;1.30;;;9.40;1.00;;;;;;4961983;28;20366;-75
2024/03/12 08:28:13;;;;;;;0.65;0.65;;;9.40;1.00;;;;;;4965179;28;20042;-74
2024/03/12 08:30:39;;;;;;;1.35;0.30;;;9.30;1.00;;;;;;4966418;28;20039;-74
2024/03/12 08:33:07;;;;;;;0.60;0.52;;;9.20;1.00;;;;;;4967427;28;20031;-74
2024/03/12 08:35:33;;;;;;;1.27;0.60;;;9.20;1.00;;;;;;4963911;28;20039;-74
2024/03/12 08:37:59;;;;;;;0.50;0.50;;;9.30;1.00;;;;;;4964928;28;20403;-74
2024/03/12 08:40:25;;;;;;;0.65;0.60;;;9.40;1.00;;;;;;4960895;28;20047;-74
2024/03/12 08:42:51;;;;;;;5.93;1.95;;;9.50;1.00;;;;;;4962112;28;20059;-74
2024/03/12 08:45:18;;;;;;;0.57;0.57;;;9.60;1.00;;;;;;4966959;28;20046;-74
2024/03/12 08:47:46;;;;;;;0.57;0.52;;;9.50;1.00;;;;;;4964953;28;20042;-74
2024/03/12 08:50:12;;;;;;;0.93;0.93;;;9.50;1.00;;;;;;4966625;28;20043;-73
2024/03/12 08:52:39;;;;;;;0.90;0.90;;;9.50;1.00;;;;;;4954373;28;20042;-74
2024/03/12 08:55:05;;;;;;;1.92;1.35;;;9.50;1.00;;;;;;4960427;28;20042;-74
2024/03/12 08:57:32;;;;;;;2.28;1.48;;;9.60;1.00;;;;;;4944461;28;20046;-73
2024/03/12 09:00:00;;;;;;;1.85;1.73;;;9.70;1.00;;;;;;4941376;28;20043;-73
2024/03/12 09:02:27;;;;;;;0.82;0.77;;;9.60;1.00;;;;;;4967034;28;20031;-74
2024/03/12 09:04:54;;;;;;;2.55;1.25;;;9.50;1.00;;;;;;4967214;28;20392;-73
2024/03/12 09:07:20;;;;;;;0.55;0.55;;;9.30;1.00;;;;;;4965227;28;20445;-73
2024/03/12 09:09:46;;;;;;;1.85;1.15;;;9.30;1.00;;;;;;4951918;28;20413;-73
2024/03/12 09:12:13;;;;;;;2.65;1.70;;;9.30;1.00;;;;;;4954679;28;20066;-75
2024/03/12 09:14:40;;;;;;;0.73;0.60;;;9.20;1.00;;;;;;4961574;28;20032;-76
2024/03/12 09:17:07;;;;;;;0.57;0.57;;;9.30;1.00;;;;;;4967487;28;20035;-75
2024/03/12 09:19:33;;;;;;;0.55;0.55;;;9.30;1.00;;;;;;4966144;28;20034;-75
2024/03/12 09:22:00;;;;;;;2.55;1.52;;;9.30;1.00;;;;;;4964076;28;20050;-75
2024/03/12 09:24:26;;;;;;;2.75;1.55;;;9.20;1.00;;;;;;4963351;28;20039;-75
2024/03/12 09:26:53;;;;;;;0.50;0.50;;;9.30;1.00;;;;;;4957585;28;20046;-75
2024/03/12 09:29:22;;;;;;;1.35;1.25;;;9.30;1.00;;;;;;4965725;28;20038;-75
2024/03/12 09:31:49;;;;;;;1.42;1.20;;;9.30;1.00;;;;;;4964080;28;20058;-75
2024/03/12 09:34:16;;;;;;;4.53;2.60;;;9.40;1.00;;;;;;4966101;28;20091;-75
2024/03/12 09:36:42;;;;;;;0.32;0.32;;;9.50;1.00;;;;;;4962935;28;20031;-75
2024/03/12 09:39:11;;;;;;;1.20;1.10;;;9.60;1.00;;;;;;4953118;28;20023;-75
2024/03/12 09:41:40;;;;;;;0.57;0.57;;;9.60;1.00;;;;;;4958975;28;20043;-75
2024/03/12 09:44:11;;;;;;;1.15;1.05;;;9.60;1.00;;;;;;4962996;28;20058;-75
2024/03/12 09:46:39;;;;;;;0.85;0.75;;;9.70;1.00;;;;;;4965963;28;20047;-75
2024/03/12 09:49:07;;;;;;;1.23;0.88;;;9.70;1.00;;;;;;4966599;28;20026;-75
2024/03/12 09:51:35;;;;;;;2.83;0.82;;;9.60;1.00;;;;;;4947153;28;20425;-75
2024/03/12 09:54:03;;;;;;;2.60;1.13;;;9.60;1.00;;;;;;4965611;28;20374;-74
2024/03/12 09:56:33;;;;;;;0.77;0.77;;;9.60;1.00;;;;;;4961642;28;20026;-74
2024/03/12 09:58:59;;;;;;;1.27;1.23;;;9.70;1.00;;;;;;4966597;28;20038;-75
2024/03/12 10:01:26;;;;;;;1.10;0.68;;;9.70;1.00;;;;;;4964946;28;20050;-74
2024/03/12 10:03:55;;;;;;;0.63;0.63;;;9.70;1.00;;;;;;4964865;28;20035;-75
2024/03/12 10:06:22;;;;;;;1.48;1.27;;;9.60;1.00;;;;;;4941319;29;20047;-75
2024/03/12 10:08:48;;;;;;;0.50;0.50;;;9.70;1.00;;;;;;4963898;28;20046;-75
2024/03/12 10:11:20;;;;;;;0.85;0.70;;;9.60;1.00;;;;;;4958930;28;20404;-74
2024/03/12 10:13:57;;;;;;;1.50;1.30;;;9.50;1.00;;;;;;4963362;28;20473;-74
2024/03/12 10:16:24;;;;;;;6.78;0.77;;;9.50;1.00;;;;;;4963002;28;20035;-74
2024/03/12 10:19:06;;;;;;;1.65;1.27;;;9.50;1.00;;;;;;4965924;28;20488;-74
2024/03/12 10:21:33;;;;;;;0.70;0.70;;;9.40;1.00;;;;;;4959263;28;20047;-74
2024/03/12 10:24:12;;;;;;;1.98;1.38;;;9.30;1.00;;;;;;4959967;28;20035;-74
2024/03/12 10:26:40;;;;;;;4.07;2.88;;;9.30;14.30;;;;;;4953607;28;20043;-74
2024/03/12 10:29:13;;;;;;;4.60;1.95;;;9.30;28.20;;;;;;4942313;28;20042;-74
2024/03/12 10:31:43;;;;;;;2.38;2.17;;;9.20;93.70;;;;;;4961482;28;20031;-74
2024/03/12 10:34:13;;;;;;;0.40;0.40;;;9.20;93.00;;;;;;4965871;28;20031;-74
2024/03/12 10:36:42;;;;;;;1.63;1.52;;;9.20;99.40;;;;;;4964483;28;20476;-73
2024/03/12 10:39:12;;;;;;;2.17;1.98;;;9.30;99.90;;;;;;4963911;28;20050;-74
2024/03/12 10:41:44;;;;;;;1.52;1.42;;;9.40;99.20;;;;;;4957465;28;20496;-74
2024/03/12 10:44:11;;;;;;;1.73;1.33;;;9.50;47.60;;;;;;4960603;28;20051;-74
2024/03/12 10:46:39;;;;;;;1.00;0.95;;;9.50;1.00;;;;;;4963763;28;20035;-74
2024/03/12 10:49:12;;;;;;;0.98;0.98;;;9.50;1.00;;;;;;4969289;28;20027;-74
2024/03/12 10:51:43;;;;;;;1.35;1.13;;;9.50;1.00;;;;;;4968521;28;20042;-74
2024/03/12 10:54:13;;;;;;;;;;;9.50;1.00;;;;;;4967042;28;20031;-74
2024/03/12 10:56:46;;;;;;;2.80;2.45;;;9.50;1.00;;;;;;4953410;28;19917;-75
2024/03/12 10:59:12;;;;;;;1.20;1.10;;;9.60;1.00;;;;;;4966142;28;20031;-75
2024/03/12 11:01:42;;;;;;;2.45;1.20;;;9.70;1.00;;;;;;4965089;28;20054;-75
2024/03/12 11:04:09;;;;;;;3.35;2.00;;;9.60;1.00;;;;;;4969752;28;20027;-74
2024/03/12 11:06:37;;;;;;;0.75;0.68;;;9.60;1.00;;;;;;4965209;28;20035;-75
2024/03/12 11:09:07;;;;;;;1.65;1.48;;;9.50;1.00;;;;;;4965254;28;20046;-75
2024/03/12 11:11:34;;;;;;;1.27;1.17;;;9.50;1.00;;;;;;4960510;28;20027;-74
2024/03/12 11:14:05;;;;;;;8.35;1.25;;;9.60;1.00;;;;;;4957784;28;20045;-75
2024/03/12 11:16:34;;;;;;;1.38;1.33;;;9.80;1.00;;;;;;4966369;28;20042;-75
2024/03/12 11:19:20;;;;;;;1.73;1.60;;;9.80;1.00;;;;;;4969640;28;20035;-75
2024/03/12 11:21:50;;;;;;;2.83;1.33;;;9.90;1.00;;;;;;4950333;28;20050;-74
2024/03/12 11:24:47;;;;;;;3.95;1.23;;;9.90;1.00;;;;;;4966112;28;20026;-75
2024/03/12 11:27:26;;;;;;;2.58;2.22;;;9.80;1.00;;;;;;4958219;28;20047;-74
2024/03/12 11:30:04;;;;;;;4.63;2.28;;;9.80;1.00;;;;;;4966344;28;20035;-74
2024/03/12 11:32:34;;;;;;;1.13;1.08;;;9.90;1.00;;;;;;4966675;28;20495;-74
2024/03/12 11:35:16;;;;;;;4.43;1.30;;;10.00;1.00;;;;;;4967178;28;20057;-75
2024/03/12 11:38:02;;;;;;;1.83;1.73;;;10.00;1.00;;;;;;4970099;28;20035;-74
2024/03/12 11:40:34;;;;;;;4.72;1.98;;;10.10;1.00;;;;;;4963670;28;20031;-74
2024/03/12 11:43:01;;;;;;;1.00;0.88;;;10.10;1.00;;;;;;4969155;28;20054;-74
2024/03/12 11:45:45;;;;;;;1.13;1.05;;;10.00;99.90;;;;;;4955715;28;20050;-74
2024/03/12 11:48:19;;;;;;;1.10;1.08;;;9.90;99.90;;;;;;4967467;28;20038;-74
2024/03/12 11:50:54;;;;;;;0.73;0.60;;;9.90;99.90;;;;;;4967753;28;20037;-74
2024/03/12 11:53:28;;;;;;;1.33;0.98;;;9.90;99.90;;;;;;4963035;28;20054;-74
2024/03/12 11:56:05;;;;;;;2.42;1.98;;;9.80;99.90;;;;;;4962691;28;20027;-74
2024/03/12 11:58:46;;;;;;;3.17;0.77;;;9.70;99.90;;;;;;4961852;28;20039;-74
2024/03/12 12:01:23;;;;;;;5.03;0.98;;;9.50;1.00;;;;;;4965007;28;20046;-74
2024/03/12 12:04:03;;;;;;;3.55;2.10;;;9.50;1.00;;;;;;4967811;28;20027;-75
2024/03/12 12:06:31;;;;;;;2.55;1.95;;;9.30;19.60;;;;;;4959365;28;20043;-75
2024/03/12 12:09:05;;;;;;;5.18;3.53;;;9.20;46.80;;;;;;4966943;28;20043;-74
2024/03/12 12:11:34;;;;;;;1.85;1.75;;;9.20;99.90;;;;;;4952951;28;20061;-74
2024/03/12 12:14:01;;;;;;;2.10;1.95;;;9.20;99.90;;;;;;4962116;28;20049;-74
2024/03/12 12:16:28;;;;;;;7.43;3.75;;;9.30;99.90;;;;;;4967339;28;20043;-74
2024/03/12 12:19:04;;;;;;;2.25;1.30;;;9.50;99.90;;;;;;4966472;28;20030;-74
2024/03/12 12:21:31;;;;;;;4.80;1.95;;;9.60;1.00;;;;;;4964594;28;20043;-74
2024/03/12 12:24:00;;;;;;;7.20;2.05;;;9.60;1.00;;;;;;4964596;28;20042;-74
2024/03/12 12:26:27;;;;;;;5.00;2.40;;;9.60;1.00;;;;;;4959625;28;20039;-75
2024/03/12 12:28:54;;;;;;;1.90;1.67;;;9.70;99.90;;;;;;4964719;28;20031;-75
2024/03/12 12:31:23;;;;;;;2.38;1.70;;;9.70;99.90;;;;;;4962452;28;20050;-74
2024/03/12 12:33:55;;;;;;;3.25;2.08;;;9.70;99.90;;;;;;4967743;28;20053;-74
2024/03/12 12:36:25;;;;;;;2.75;2.38;;;9.60;99.90;;;;;;4964353;28;20057;-74
2024/03/12 12:38:52;;;;;;;5.32;1.20;;;9.60;99.90;;;;;;4963752;28;20031;-74
2024/03/12 12:41:22;;;;;;;1.23;1.13;;;9.40;99.90;;;;;;4961197;28;20058;-73
2024/03/12 12:43:50;;;;;;;2.35;1.90;;;9.40;99.90;;;;;;4963261;28;20050;-74
2024/03/12 12:46:25;;;;;;;3.85;2.75;;;9.40;99.90;;;;;;4965409;28;20038;-74
2024/03/12 12:48:56;;;;;;;3.30;1.08;;;9.40;99.90;;;;;;4967475;28;20385;-74
2024/03/12 12:51:23;;;;;;;3.47;2.00;;;9.50;99.90;;;;;;4953374;28;20054;-74
2024/03/12 12:53:51;;;;;;;5.05;1.48;;;9.50;99.90;;;;;;4955461;28;20505;-74
2024/03/12 12:56:19;;;;;;;2.45;1.95;;;9.50;99.90;;;;;;4964124;28;20061;-74
2024/03/12 12:58:47;;;;;;;3.17;2.25;;;9.60;99.90;;;;;;4962078;28;20031;-74
2024/03/12 13:01:14;;;;;;;2.08;1.40;;;9.80;99.90;;;;;;4964603;28;20049;-74
2024/03/12 13:03:43;;;;;;;2.38;1.90;;;9.90;99.90;;;;;;4965006;28;20389;-74
2024/03/12 13:06:22;;;;;;;1.85;1.38;;;10.00;99.90;;;;;;4965054;28;20038;-74
2024/03/12 13:08:52;;;;;;;1.70;1.58;;;10.10;96.20;;;;;;4960913;28;20047;-74
2024/03/12 13:11:25;;;;;;;3.30;2.40;;;10.20;96.80;;;;;;4961789;28;20503;-74
2024/03/12 13:13:51;;;;;;;0.93;0.93;;;10.30;99.90;;;;;;4962382;28;20039;-74
2024/03/12 13:16:21;;;;;;;3.28;2.70;;;10.40;99.90;;;;;;4965508;28;20030;-74
2024/03/12 13:18:49;;;;;;;4.80;2.47;;;10.40;74.70;;;;;;4965390;28;20487;-74